Time;durP1;ratioP1;P1;durP2;ratioP2;P2;SDS_P1;SDS_P2;PMS_P1;PMS_P2;Temp;Humidity;BMP_temperature;BMP_pressure;BME280_temperature;BME280_humidity;BME280_pressure;Samples;Min_cycle;Max_cycle;Signal;HPM_P1;HPM_P2
2023/08/17 00:01:03;;;;;;;;;;;;;;;;;;5029868;28;19979;-66
2023/08/17 00:03:30;;;;;;;;;;;;;;;;;;5029638;28;19929;-66
2023/08/17 00:05:57;;;;;;;;;;;;;;;;;;5029277;28;20018;-66
2023/08/17 00:08:24;;;;;;;;;;;;;;;;;;5031874;28;19995;-66
2023/08/17 00:10:51;;;;;;;;;;;;;;;;;;5029414;28;19975;-66
2023/08/17 00:13:18;;;;;;;;;;;;;;;;;;5018143;28;20379;-66
2023/08/17 00:15:46;;;;;;;;;;;;;;;;;;5028181;28;19925;-66
2023/08/17 00:18:13;;;;;;;;;;;;;;;;;;5029574;28;20384;-66
2023/08/17 00:20:40;;;;;;;;;;;;;;;;;;5030424;28;19932;-66
2023/08/17 00:23:07;;;;;;;;;;;;;;;;;;5031292;28;19929;-66
2023/08/17 00:25:34;;;;;;;;;;;;;;;;;;5030221;28;20355;-66
2023/08/17 00:28:01;;;;;;;;;;;;;;;;;;5030388;28;19931;-66
2023/08/17 00:30:28;;;;;;;;;;;;;;;;;;5030947;28;19936;-66
2023/08/17 00:32:55;;;;;;;;;;;;;;;;;;5030342;28;19925;-66
2023/08/17 00:35:22;;;;;;;;;;;;;;;;;;5028777;28;19925;-66
2023/08/17 00:37:49;;;;;;;;;;;;;;;;;;5031726;28;20376;-67
2023/08/17 00:40:16;;;;;;;;;;;;;;;;;;5031884;28;19925;-66
2023/08/17 00:42:43;;;;;;;;;;;;;;;;;;5032872;28;19925;-67
2023/08/17 00:45:10;;;;;;;;;;;;;;;;;;5033847;28;20011;-66
2023/08/17 00:47:37;;;;;;;;;;;;;;;;;;5033813;28;20001;-67
2023/08/17 00:50:04;;;;;;;;;;;;;;;;;;5021554;28;19980;-67
2023/08/17 00:52:31;;;;;;;;;;;;;;;;;;5029771;28;19925;-66
2023/08/17 00:54:58;;;;;;;;;;;;;;;;;;5032802;28;19929;-66
2023/08/17 00:57:25;;;;;;;;;;;;;;;;;;5034013;28;19925;-66
2023/08/17 00:59:52;;;;;;;;;;;;;;;;;;5033440;28;19986;-66
2023/08/17 01:02:19;;;;;;;;;;;;;;;;;;5035101;28;19929;-66
2023/08/17 01:04:46;;;;;;;;;;;;;;;;;;5033586;28;19925;-66
2023/08/17 01:07:13;;;;;;;;;;;;;;;;;;5023313;28;20288;-66
2023/08/17 01:09:40;;;;;;;;;;;;;;;;;;5028714;28;19979;-67
2023/08/17 01:12:07;;;;;;;;;;;;;;;;;;5035345;28;19925;-65
2023/08/17 01:14:34;;;;;;;;;;;;;;;;;;5034812;28;19925;-64
2023/08/17 01:17:01;;;;;;;;;;;;;;;;;;5034870;28;19929;-65
2023/08/17 01:19:28;;;;;;;;;;;;;;;;;;5033966;28;19929;-65
2023/08/17 01:21:55;;;;;;;;;;;;;;;;;;5034732;28;19994;-65
2023/08/17 01:24:22;;;;;;;;;;;;;;;;;;5034993;28;19987;-64
2023/08/17 01:26:49;;;;;;;;;;;;;;;;;;5031145;28;19929;-65
2023/08/17 01:29:16;;;;;;;;;;;;;;;;;;5035477;28;19979;-66
2023/08/17 01:31:43;;;;;;;;;;;;;;;;;;5033272;28;19925;-66
2023/08/17 01:34:10;;;;;;;;;;;;;;;;;;5033008;28;19979;-65
2023/08/17 01:36:37;;;;;;;;;;;;;;;;;;5033892;28;20455;-65
2023/08/17 01:39:04;;;;;;;;;;;;;;;;;;5032692;28;19933;-65
2023/08/17 01:41:31;;;;;;;;;;;;;;;;;;5034627;28;19972;-64
2023/08/17 01:43:58;;;;;;;;;;;;;;;;;;5032127;28;19933;-65
2023/08/17 01:46:25;;;;;;;;;;;;;;;;;;5032236;28;19925;-65
2023/08/17 01:48:52;;;;;;;;;;;;;;;;;;5032853;28;19925;-66
2023/08/17 01:51:20;;;;;;;;;;;;;;;;;;5033085;28;20353;-65
2023/08/17 01:53:47;;;;;;;;;;;;;;;;;;5033369;28;19932;-66
2023/08/17 01:56:14;;;;;;;;;;;;;;;;;;5032540;28;19976;-65
2023/08/17 01:58:41;;;;;;;;;;;;;;;;;;5031111;28;19980;-65
2023/08/17 02:01:08;;;;;;;;;;;;;;;;;;5032410;28;20007;-65
2023/08/17 02:03:35;;;;;;;;;;;;;;;;;;5031018;28;19971;-65
2023/08/17 02:06:02;;;;;;;;;;;;;;;;;;5031118;28;20380;-65
2023/08/17 02:08:29;;;;;;;;;;;;;;;;;;5033489;28;19929;-65
2023/08/17 02:10:56;;;;;;;;;;;;;;;;;;5033275;28;19925;-65
2023/08/17 02:13:23;;;;;;;;;;;;;;;;;;5033199;28;19929;-65
2023/08/17 02:15:50;;;;;;;;;;;;;;;;;;5032232;28;19975;-65
2023/08/17 02:18:17;;;;;;;;;;;;;;;;;;5031695;28;20347;-65
2023/08/17 02:20:44;;;;;;;;;;;;;;;;;;5032394;28;19925;-65
2023/08/17 02:23:10;;;;;;;;;;;;;;;;;;5032758;28;19925;-65
2023/08/17 02:25:37;;;;;;;;;;;;;;;;;;5033237;28;19987;-65
2023/08/17 02:28:04;;;;;;;;;;;;;;;;;;5032818;28;19971;-66
2023/08/17 02:30:31;;;;;;;;;;;;;;;;;;5030450;28;21905;-65
2023/08/17 02:32:58;;;;;;;;;;;;;;;;;;5031118;28;19933;-66
2023/08/17 02:35:25;;;;;;;;;;;;;;;;;;5025690;28;20453;-66
2023/08/17 02:37:53;;;;;;;;;;;;;;;;;;5033131;28;19979;-65
2023/08/17 02:40:20;;;;;;;;;;;;;;;;;;5032537;28;20015;-66
2023/08/17 02:42:47;;;;;;;;;;;;;;;;;;5032234;28;20453;-66
2023/08/17 02:45:13;;;;;;;;;;;;;;;;;;5032436;28;19924;-65
2023/08/17 02:47:41;;;;;;;;;;;;;;;;;;5032552;28;20379;-65
2023/08/17 02:50:08;;;;;;;;;;;;;;;;;;5030977;28;19976;-66
2023/08/17 02:52:35;;;;;;;;;;;;;;;;;;5031695;28;19925;-65
2023/08/17 02:55:02;;;;;;;;;;;;;;;;;;5033234;28;20304;-66
2023/08/17 02:57:29;;;;;;;;;;;;;;;;;;5029727;28;19932;-66
2023/08/17 02:59:56;;;;;;;;;;;;;;;;;;5031921;28;20081;-66
2023/08/17 03:02:23;;;;;;;;;;;;;;;;;;5032904;28;19925;-65
2023/08/17 03:04:50;;;;;;;;;;;;;;;;;;5030354;28;20438;-66
2023/08/17 03:07:17;;;;;;;;;;;;;;;;;;5032038;28;19971;-66
2023/08/17 03:09:44;;;;;;;;;;;;;;;;;;5028794;28;20335;-66
2023/08/17 03:12:11;;;;;;;;;;;;;;;;;;5032230;28;19925;-65
2023/08/17 03:14:38;;;;;;;;;;;;;;;;;;5031677;28;19991;-67
2023/08/17 03:17:05;;;;;;;;;;;;;;;;;;5031857;28;19972;-65
2023/08/17 03:19:32;;;;;;;;;;;;;;;;;;5030336;28;20349;-65
2023/08/17 03:21:59;;;;;;;;;;;;;;;;;;5029741;28;21503;-66
2023/08/17 03:24:26;;;;;;;;;;;;;;;;;;5032556;28;19925;-65
2023/08/17 03:26:53;;;;;;;;;;;;;;;;;;5028099;28;19929;-66
2023/08/17 03:29:20;;;;;;;;;;;;;;;;;;5032370;28;19925;-66
2023/08/17 03:31:47;;;;;;;;;;;;;;;;;;5031257;28;19936;-66
2023/08/17 03:34:14;;;;;;;;;;;;;;;;;;5030066;28;19977;-65
2023/08/17 03:36:41;;;;;;;;;;;;;;;;;;5030140;28;19925;-65
2023/08/17 03:39:08;;;;;;;;;;;;;;;;;;5030630;28;19926;-66
2023/08/17 03:41:36;;;;;;;;;;;;;;;;;;5031030;28;19929;-66
2023/08/17 03:44:03;;;;;;;;;;;;;;;;;;5030769;28;20372;-66
2023/08/17 03:46:30;;;;;;;;;;;;;;;;;;5030955;28;19925;-65
2023/08/17 03:48:57;;;;;;;;;;;;;;;;;;5031089;28;19925;-65
2023/08/17 03:51:24;;;;;;;;;;;;;;;;;;5027455;28;19931;-65
2023/08/17 03:53:52;;;;;;;;;;;;;;;;;;5031675;28;19925;-65
2023/08/17 03:56:19;;;;;;;;;;;;;;;;;;5030199;28;19996;-66
2023/08/17 03:58:46;;;;;;;;;;;;;;;;;;5031720;28;19925;-66
2023/08/17 04:01:13;;;;;;;;;;;;;;;;;;5029552;28;19948;-65
2023/08/17 04:03:41;;;;;;;;;;;;;;;;;;5029148;28;19968;-66
2023/08/17 04:06:10;;;;;;;;;;;;;;;;;;5030371;28;20347;-66
2023/08/17 04:08:37;;;;;;;;;;;;;;;;;;5031063;28;19928;-65
2023/08/17 04:11:04;;;;;;;;;;;;;;;;;;5030515;28;19925;-65
2023/08/17 04:13:31;;;;;;;;;;;;;;;;;;5031480;28;19932;-65
2023/08/17 04:15:57;;;;;;;;;;;;;;;;;;5034583;28;19960;-65
2023/08/17 04:18:25;;;;;;;;;;;;;;;;;;5029603;28;20416;-65
2023/08/17 04:20:52;;;;;;;;;;;;;;;;;;5033135;28;19940;-66
2023/08/17 04:23:19;;;;;;;;;;;;;;;;;;5035051;28;19933;-65
2023/08/17 04:25:46;;;;;;;;;;;;;;;;;;5035171;28;19925;-65
2023/08/17 04:28:13;;;;;;;;;;;;;;;;;;5035181;28;19929;-68
2023/08/17 04:30:40;;;;;;;;;;;;;;;;;;5033602;28;20335;-67
2023/08/17 04:33:07;;;;;;;;;;;;;;;;;;5034987;28;19929;-67
2023/08/17 04:35:34;;;;;;;;;;;;;;;;;;5032102;28;19949;-68
2023/08/17 04:38:01;;;;;;;;;;;;;;;;;;5034771;28;19933;-67
2023/08/17 04:40:28;;;;;;;;;;;;;;;;;;5031358;28;20456;-67
2023/08/17 04:42:55;;;;;;;;;;;;;;;;;;5030113;28;19965;-67
2023/08/17 04:45:23;;;;;;;;;;;;;;;;;;5032652;28;20437;-67
2023/08/17 04:47:50;;;;;;;;;;;;;;;;;;5032733;28;19965;-67
2023/08/17 04:50:17;;;;;;;;;;;;;;;;;;5031819;28;20340;-67
2023/08/17 04:52:44;;;;;;;;;;;;;;;;;;5033458;28;19925;-67
2023/08/17 04:55:11;;;;;;;;;;;;;;;;;;5034279;28;19991;-68
2023/08/17 04:57:38;;;;;;;;;;;;;;;;;;5033288;28;19925;-69
2023/08/17 05:00:08;;;;;;;;;;;;;;;;;;5033167;28;19929;-69
2023/08/17 05:02:35;;;;;;;;;;;;;;;;;;5034040;28;19929;-69
2023/08/17 05:05:02;;;;;;;;;;;;;;;;;;5033295;28;19929;-69
2023/08/17 05:07:29;;;;;;;;;;;;;;;;;;5031273;28;20399;-68
2023/08/17 05:09:57;;;;;;;;;;;;;;;;;;5035231;28;20384;-69
2023/08/17 05:12:24;;;;;;;;;;;;;;;;;;5034432;28;19933;-69
2023/08/17 05:14:51;;;;;;;;;;;;;;;;;;5034447;28;19929;-69
2023/08/17 05:17:18;;;;;;;;;;;;;;;;;;5035075;28;19925;-69
2023/08/17 05:19:45;;;;;;;;;;;;;;;;;;5033352;28;19932;-69
2023/08/17 05:22:12;;;;;;;;;;;;;;;;;;5031222;28;20015;-69
2023/08/17 05:24:39;;;;;;;;;;;;;;;;;;5031277;28;19925;-70
2023/08/17 05:27:05;;;;;;;;;;;;;;;;;;5034382;28;19924;-69
2023/08/17 05:29:32;;;;;;;;;;;;;;;;;;5035056;28;20290;-70
2023/08/17 05:31:59;;;;;;;;;;;;;;;;;;5028874;28;19925;-69
2023/08/17 05:34:26;;;;;;;;;;;;;;;;;;5035165;28;20384;-69
2023/08/17 05:36:53;;;;;;;;;;;;;;;;;;5034906;28;19944;-69
2023/08/17 05:39:20;;;;;;;;;;;;;;;;;;5035200;28;19925;-70
2023/08/17 05:41:47;;;;;;;;;;;;;;;;;;5032712;28;20003;-69
2023/08/17 05:44:15;;;;;;;;;;;;;;;;;;5032614;28;19925;-69
2023/08/17 05:46:42;;;;;;;;;;;;;;;;;;5033047;28;20044;-70
2023/08/17 05:49:09;;;;;;;;;;;;;;;;;;5034419;28;19925;-70
2023/08/17 05:51:36;;;;;;;;;;;;;;;;;;5031235;28;19933;-70
2023/08/17 05:54:03;;;;;;;;;;;;;;;;;;5033594;28;19965;-70
2023/08/17 05:56:30;;;;;;;;;;;;;;;;;;5027870;28;19940;-69
2023/08/17 05:58:57;;;;;;;;;;;;;;;;;;5030734;28;19926;-70
2023/08/17 06:01:24;;;;;;;;;;;;;;;;;;5033237;28;19933;-67
2023/08/17 06:03:51;;;;;;;;;;;;;;;;;;5033537;28;20016;-69
2023/08/17 06:06:18;;;;;;;;;;;;;;;;;;5032163;28;19988;-70
2023/08/17 06:08:45;;;;;;;;;;;;;;;;;;5033341;28;20012;-69
2023/08/17 06:11:12;;;;;;;;;;;;;;;;;;5030060;28;19928;-70
2023/08/17 06:13:39;;;;;;;;;;;;;;;;;;5033696;28;20370;-70
2023/08/17 06:16:06;;;;;;;;;;;;;;;;;;5025312;28;19987;-70
2023/08/17 06:18:34;;;;;;;;;;;;;;;;;;5030716;28;19925;-71
2023/08/17 06:21:01;;;;;;;;;;;;;;;;;;5030170;28;19925;-70
2023/08/17 06:23:28;;;;;;;;;;;;;;;;;;5032161;28;20315;-70
2023/08/17 06:25:55;;;;;;;;;;;;;;;;;;5018507;28;19987;-70
2023/08/17 06:28:22;;;;;;;;;;;;;;;;;;5031309;28;20004;-70
2023/08/17 06:30:49;;;;;;;;;;;;;;;;;;5033671;28;19979;-69
2023/08/17 06:33:16;;;;;;;;;;;;;;;;;;5033056;28;20339;-69
2023/08/17 06:35:43;;;;;;;;;;;;;;;;;;5031118;28;19926;-70
2023/08/17 06:38:10;;;;;;;;;;;;;;;;;;5030691;28;19972;-70
2023/08/17 06:40:37;;;;;;;;;;;;;;;;;;5028089;28;19925;-69
2023/08/17 06:43:04;;;;;;;;;;;;;;;;;;5031691;28;19925;-67
2023/08/17 06:45:31;;;;;;;;;;;;;;;;;;5032444;28;20442;-66
2023/08/17 06:47:58;;;;;;;;;;;;;;;;;;5030361;28;19925;-67
2023/08/17 06:50:26;;;;;;;;;;;;;;;;;;5030727;28;19929;-67
2023/08/17 06:52:53;;;;;;;;;;;;;;;;;;5032668;28;19990;-68
2023/08/17 06:55:20;;;;;;;;;;;;;;;;;;5031563;28;19991;-69
2023/08/17 06:57:47;;;;;;;;;;;;;;;;;;5030338;28;19996;-68
2023/08/17 07:00:14;;;;;;;;;;;;;;;;;;5029451;28;19978;-69
2023/08/17 07:02:41;;;;;;;;;;;;;;;;;;5031999;28;19925;-67
2023/08/17 07:05:08;;;;;;;;;;;;;;;;;;5032228;28;19925;-68
2023/08/17 07:07:35;;;;;;;;;;;;;;;;;;5028714;28;20395;-68
2023/08/17 07:10:02;;;;;;;;;;;;;;;;;;5032916;28;19972;-69
2023/08/17 07:12:29;;;;;;;;;;;;;;;;;;5032008;28;19929;-68
2023/08/17 07:14:56;;;;;;;;;;;;;;;;;;5031935;28;20609;-68
2023/08/17 07:17:23;;;;;;;;;;;;;;;;;;5031238;28;19933;-68
2023/08/17 07:19:50;;;;;;;;;;;;;;;;;;5031838;28;20034;-68
2023/08/17 07:22:17;;;;;;;;;;;;;;;;;;5021191;28;20373;-68
2023/08/17 07:24:44;;;;;;;;;;;;;;;;;;5020783;28;20030;-68
2023/08/17 07:27:11;;;;;;;;;;;;;;;;;;5025071;28;19929;-68
2023/08/17 07:29:38;;;;;;;;;;;;;;;;;;5027231;28;19988;-68
2023/08/17 07:32:05;;;;;;;;;;;;;;;;;;5022337;28;20000;-68
2023/08/17 07:34:32;;;;;;;;;;;;;;;;;;5027273;28;19932;-71
2023/08/17 07:36:59;;;;;;;;;;;;;;;;;;5025673;28;20304;-68
2023/08/17 07:39:26;;;;;;;;;;;;;;;;;;5026778;28;19948;-68
2023/08/17 07:41:53;;;;;;;;;;;;;;;;;;5025007;28;20026;-68
2023/08/17 07:44:20;;;;;;;;;;;;;;;;;;5018153;28;19933;-69
2023/08/17 07:46:47;;;;;;;;;;;;;;;;;;5023480;28;19929;-68
2023/08/17 07:49:14;;;;;;;;;;;;;;;;;;5026819;28;19929;-68
2023/08/17 07:51:41;;;;;;;;;;;;;;;;;;5029822;28;19968;-68
2023/08/17 07:54:09;;;;;;;;;;;;;;;;;;5023474;28;19929;-68
2023/08/17 07:56:36;;;;;;;;;;;;;;;;;;5021010;28;19972;-69
2023/08/17 07:59:03;;;;;;;;;;;;;;;;;;5022149;28;19929;-68
2023/08/17 08:01:30;;;;;;;;;;;;;;;;;;5024903;28;19925;-68
2023/08/17 08:03:57;;;;;;;;;;;;;;;;;;5018812;28;19980;-69
2023/08/17 08:06:24;;;;;;;;;;;;;;;;;;5031253;28;19925;-69
2023/08/17 08:08:51;;;;;;;;;;;;;;;;;;5031565;28;20515;-69
2023/08/17 08:11:18;;;;;;;;;;;;;;;;;;5030928;28;19933;-69
2023/08/17 08:13:45;;;;;;;;;;;;;;;;;;5026802;28;19925;-69
2023/08/17 08:16:12;;;;;;;;;;;;;;;;;;5031015;28;19933;-70
2023/08/17 08:18:39;;;;;;;;;;;;;;;;;;5031599;28;20388;-70
2023/08/17 08:21:07;;;;;;;;;;;;;;;;;;5027168;28;20067;-67
2023/08/17 08:23:34;;;;;;;;;;;;;;;;;;5027104;28;19983;-69
2023/08/17 08:26:01;;;;;;;;;;;;;;;;;;5028526;28;19932;-69
2023/08/17 08:28:28;;;;;;;;;;;;;;;;;;5024285;28;19929;-70
2023/08/17 08:30:55;;;;;;;;;;;;;;;;;;5026580;28;19925;-69
2023/08/17 08:33:22;;;;;;;;;;;;;;;;;;5034878;28;19936;-69
2023/08/17 08:35:49;;;;;;;;;;;;;;;;;;5027345;28;19979;-70
2023/08/17 08:38:16;;;;;;;;;;;;;;;;;;5030384;28;19925;-69
2023/08/17 08:40:43;;;;;;;;;;;;;;;;;;5032816;28;20023;-70
2023/08/17 08:43:10;;;;;;;;;;;;;;;;;;5025332;28;19929;-70
2023/08/17 08:45:37;;;;;;;;;;;;;;;;;;5027198;28;20365;-70
2023/08/17 08:48:04;;;;;;;;;;;;;;;;;;5031575;28;19933;-70
2023/08/17 08:50:31;;;;;;;;;;;;;;;;;;5026442;28;20367;-69
2023/08/17 08:52:58;;;;;;;;;;;;;;;;;;5028093;28;20086;-69
2023/08/17 08:55:25;;;;;;;;;;;;;;;;;;5032186;28;20007;-69
2023/08/17 08:57:52;;;;;;;;;;;;;;;;;;5024762;28;19994;-69
2023/08/17 09:00:19;;;;;;;;;;;;;;;;;;5026777;28;19960;-69
2023/08/17 09:02:46;;;;;;;;;;;;;;;;;;5025166;28;20351;-69
2023/08/17 09:05:13;;;;;;;;;;;;;;;;;;5027350;28;19937;-68
2023/08/17 09:07:41;;;;;;;;;;;;;;;;;;5028991;28;19925;-68
2023/08/17 09:10:08;;;;;;;;;;;;;;;;;;5030862;28;19925;-68
2023/08/17 09:12:35;;;;;;;;;;;;;;;;;;5033401;28;20360;-68
2023/08/17 09:15:02;;;;;;;;;;;;;;;;;;5026343;28;19925;-67
2023/08/17 09:17:29;;;;;;;;;;;;;;;;;;5035197;28;20499;-67
2023/08/17 09:19:56;;;;;;;;;;;;;;;;;;5028265;28;20273;-68
2023/08/17 09:22:23;;;;;;;;;;;;;;;;;;5025693;28;20447;-68
2023/08/17 09:24:50;;;;;;;;;;;;;;;;;;5029184;28;19929;-68
2023/08/17 09:27:17;;;;;;;;;;;;;;;;;;5026700;28;19925;-69
2023/08/17 09:29:45;;;;;;;;;;;;;;;;;;5027490;28;19933;-68
2023/08/17 09:32:12;;;;;;;;;;;;;;;;;;5030607;28;19925;-69
2023/08/17 09:34:39;;;;;;;;;;;;;;;;;;5031560;28;19975;-68
2023/08/17 09:37:06;;;;;;;;;;;;;;;;;;5029980;28;19930;-67
2023/08/17 09:39:33;;;;;;;;;;;;;;;;;;5026575;28;19932;-68
2023/08/17 09:42:02;;;;;;;;;;;;;;;;;;5033717;28;20351;-69
2023/08/17 09:44:29;;;;;;;;;;;;;;;;;;5030394;28;19925;-68
2023/08/17 09:46:56;;;;;;;;;;;;;;;;;;5025182;28;19925;-67
2023/08/17 09:49:23;;;;;;;;;;;;;;;;;;5033278;28;19973;-68
2023/08/17 09:51:52;;;;;;;;;;;;;;;;;;5033908;28;19925;-67
2023/08/17 09:54:19;;;;;;;;;;;;;;;;;;5034643;28;20028;-67
2023/08/17 09:56:46;;;;;;;;;;;;;;;;;;5031635;28;19925;-67
2023/08/17 09:59:13;;;;;;;;;;;;;;;;;;5032215;28;19983;-70
2023/08/17 10:01:40;;;;;;;;;;;;;;;;;;5024666;28;19929;-69
2023/08/17 10:04:07;;;;;;;;;;;;;;;;;;5030554;28;20009;-70
2023/08/17 10:06:34;;;;;;;;;;;;;;;;;;5028157;28;20372;-70
2023/08/17 10:09:01;;;;;;;;;;;;;;;;;;5029020;28;19971;-70
2023/08/17 10:11:28;;;;;;;;;;;;;;;;;;5029653;28;20396;-70
2023/08/17 10:13:55;;;;;;;;;;;;;;;;;;5025585;28;19964;-70
2023/08/17 10:16:22;;;;;;;;;;;;;;;;;;5035105;28;20415;-70
2023/08/17 10:18:49;;;;;;;;;;;;;;;;;;5027688;28;20029;-70
2023/08/17 10:21:16;;;;;;;;;;;;;;;;;;5027242;28;19979;-70
2023/08/17 10:23:43;;;;;;;;;;;;;;;;;;5023247;28;20324;-70
2023/08/17 10:26:10;;;;;;;;;;;;;;;;;;5020861;28;20022;-70
2023/08/17 10:28:37;;;;;;;;;;;;;;;;;;5024192;28;19937;-68
2023/08/17 10:31:04;;;;;;;;;;;;;;;;;;5027090;28;19929;-69
2023/08/17 10:33:31;;;;;;;;;;;;;;;;;;5026739;28;19956;-68
2023/08/17 10:35:58;;;;;;;;;;;;;;;;;;5028725;28;20435;-70
2023/08/17 10:38:25;;;;;;;;;;;;;;;;;;5039759;28;20008;-68
2023/08/17 10:40:52;;;;;;;;;;;;;;;;;;5027771;28;19964;-68
2023/08/17 10:43:19;;;;;;;;;;;;;;;;;;5024798;28;19925;-68
2023/08/17 10:45:50;;;;;;;;;;;;;;;;;;5031653;28;19932;-68
2023/08/17 10:48:17;;;;;;;;;;;;;;;;;;5029288;28;20026;-69
2023/08/17 10:50:44;;;;;;;;;;;;;;;;;;5033417;28;19957;-68
2023/08/17 10:53:11;;;;;;;;;;;;;;;;;;5036223;28;19967;-68
2023/08/17 10:55:39;;;;;;;;;;;;;;;;;;5027692;28;19972;-68
2023/08/17 10:58:08;;;;;;;;;;;;;;;;;;5026450;28;19925;-69
2023/08/17 11:00:36;;;;;;;;;;;;;;;;;;5023155;28;20667;-68
2023/08/17 11:03:03;;;;;;;;;;;;;;;;;;5025105;28;19925;-68
2023/08/17 11:05:30;;;;;;;;;;;;;;;;;;5027613;28;20373;-69
2023/08/17 11:07:57;;;;;;;;;;;;;;;;;;5025558;28;19925;-69
2023/08/17 11:10:24;;;;;;;;;;;;;;;;;;5027712;28;19982;-69
2023/08/17 11:12:51;;;;;;;;;;;;;;;;;;5028412;28;19929;-70
2023/08/17 11:15:18;;;;;;;;;;;;;;;;;;5028906;28;20024;-70
2023/08/17 11:17:45;;;;;;;;;;;;;;;;;;5022861;28;19969;-69
2023/08/17 11:20:12;;;;;;;;;;;;;;;;;;5024559;28;19925;-68
2023/08/17 11:22:39;;;;;;;;;;;;;;;;;;5026706;28;19983;-69
2023/08/17 11:25:06;;;;;;;;;;;;;;;;;;5025025;28;19925;-69
2023/08/17 11:27:33;;;;;;;;;;;;;;;;;;5025484;28;19956;-69
2023/08/17 11:30:00;;;;;;;;;;;;;;;;;;5030329;28;20360;-68
2023/08/17 11:32:27;;;;;;;;;;;;;;;;;;5017339;28;19925;-68
2023/08/17 11:34:54;;;;;;;;;;;;;;;;;;5027005;28;19925;-69
2023/08/17 11:37:21;;;;;;;;;;;;;;;;;;5029565;28;19925;-68
2023/08/17 11:39:48;;;;;;;;;;;;;;;;;;5022090;28;19983;-69
2023/08/17 11:42:16;;;;;;;;;;;;;;;;;;5020951;28;19925;-68
2023/08/17 11:44:42;;;;;;;;;;;;;;;;;;5021838;28;19925;-68
2023/08/17 11:47:09;;;;;;;;;;;;;;;;;;5028224;28;20011;-68
2023/08/17 11:49:37;;;;;;;;;;;;;;;;;;5028502;28;19987;-68
2023/08/17 11:52:04;;;;;;;;;;;;;;;;;;5026454;28;19971;-68
2023/08/17 11:54:31;;;;;;;;;;;;;;;;;;5031286;28;19956;-68
2023/08/17 11:56:58;;;;;;;;;;;;;;;;;;5027801;28;20376;-68
2023/08/17 11:59:27;;;;;;;;;;;;;;;;;;5025502;28;19960;-68
2023/08/17 12:01:54;;;;;;;;;;;;;;;;;;5028633;28;20510;-68
2023/08/17 12:04:21;;;;;;;;;;;;;;;;;;5028615;28;20067;-69
2023/08/17 12:06:48;;;;;;;;;;;;;;;;;;5024012;28;19932;-69
2023/08/17 12:09:15;;;;;;;;;;;;;;;;;;5026900;28;19979;-69
2023/08/17 12:11:42;;;;;;;;;;;;;;;;;;5022863;28;19925;-69
2023/08/17 12:14:09;;;;;;;;;;;;;;;;;;5026003;28;19986;-68
2023/08/17 12:16:36;;;;;;;;;;;;;;;;;;5027935;28;20408;-68
2023/08/17 12:19:04;;;;;;;;;;;;;;;;;;5026973;28;20037;-68
2023/08/17 12:21:31;;;;;;;;;;;;;;;;;;5028793;28;20012;-68
2023/08/17 12:24:00;;;;;;;;;;;;;;;;;;5030499;28;19933;-68
2023/08/17 12:26:29;;;;;;;;;;;;;;;;;;5028324;28;19925;-68
2023/08/17 12:28:56;;;;;;;;;;;;;;;;;;5027247;28;19940;-68
2023/08/17 12:31:23;;;;;;;;;;;;;;;;;;5023993;28;19929;-68
2023/08/17 12:33:50;;;;;;;;;;;;;;;;;;5024758;28;20015;-68
2023/08/17 12:36:18;;;;;;;;;;;;;;;;;;5021330;28;20298;-70
2023/08/17 12:38:47;;;;;;;;;;;;;;;;;;5034575;28;19940;-68
2023/08/17 12:41:14;;;;;;;;;;;;;;;;;;5034159;28;19987;-67
2023/08/17 12:43:41;;;;;;;;;;;;;;;;;;5033362;28;19925;-68
2023/08/17 12:46:08;;;;;;;;;;;;;;;;;;5031084;28;20404;-67
2023/08/17 12:48:35;;;;;;;;;;;;;;;;;;5027235;28;19937;-68
2023/08/17 12:51:02;;;;;;;;;;;;;;;;;;5032928;28;19926;-69
2023/08/17 12:53:30;;;;;;;;;;;;;;;;;;5029128;28;19933;-70
2023/08/17 12:55:57;;;;;;;;;;;;;;;;;;5026991;28;19926;-70
2023/08/17 12:58:24;;;;;;;;;;;;;;;;;;5036855;28;19993;-69
2023/08/17 13:00:53;;;;;;;;;;;;;;;;;;5028553;28;19994;-70
2023/08/17 13:03:21;;;;;;;;;;;;;;;;;;5032042;28;19929;-71
2023/08/17 13:05:48;;;;;;;;;;;;;;;;;;5032175;28;20462;-69
2023/08/17 13:08:15;;;;;;;;;;;;;;;;;;5032268;28;19925;-69
2023/08/17 13:10:42;;;;;;;;;;;;;;;;;;5016390;28;19932;-68
2023/08/17 13:13:09;;;;;;;;;;;;;;;;;;5033063;28;19931;-69
2023/08/17 13:15:36;;;;;;;;;;;;;;;;;;5034432;28;19979;-69
2023/08/17 13:18:03;;;;;;;;;;;;;;;;;;5023884;28;19980;-69
2023/08/17 13:20:30;;;;;;;;;;;;;;;;;;5030468;28;19960;-69
2023/08/17 13:22:57;;;;;;;;;;;;;;;;;;5021352;28;19925;-70
2023/08/17 13:25:24;;;;;;;;;;;;;;;;;;5031406;28;19970;-70
2023/08/17 13:27:51;;;;;;;;;;;;;;;;;;5031187;28;19926;-69
2023/08/17 13:30:18;;;;;;;;;;;;;;;;;;5033136;28;19932;-71
2023/08/17 13:32:45;;;;;;;;;;;;;;;;;;5034185;28;19925;-71
2023/08/17 13:35:12;;;;;;;;;;;;;;;;;;5030610;28;19933;-70
2023/08/17 13:37:39;;;;;;;;;;;;;;;;;;5034056;28;19925;-71
2023/08/17 13:40:07;;;;;;;;;;;;;;;;;;5031375;28;20392;-71
2023/08/17 13:42:34;;;;;;;;;;;;;;;;;;5032536;28;19925;-67
2023/08/17 13:45:01;;;;;;;;;;;;;;;;;;5033124;28;19980;-68
2023/08/17 13:47:28;;;;;;;;;;;;;;;;;;5032640;28;19929;-69
2023/08/17 13:49:56;;;;;;;;;;;;;;;;;;5030992;28;20023;-68
2023/08/17 13:52:23;;;;;;;;;;;;;;;;;;5023927;28;19951;-68
2023/08/17 13:54:50;;;;;;;;;;;;;;;;;;5031621;28;20300;-68
2023/08/17 13:57:17;;;;;;;;;;;;;;;;;;5025925;28;19987;-67
2023/08/17 13:59:45;;;;;;;;;;;;;;;;;;5032114;28;19929;-66
2023/08/17 14:02:12;;;;;;;;;;;;;;;;;;5024454;28;19925;-67
2023/08/17 14:04:39;;;;;;;;;;;;;;;;;;5026640;28;19925;-67
2023/08/17 14:07:06;;;;;;;;;;;;;;;;;;5029489;28;19929;-68
2023/08/17 14:09:33;;;;;;;;;;;;;;;;;;5024362;28;19925;-67
2023/08/17 14:12:01;;;;;;;;;;;;;;;;;;5024758;28;20999;-67
2023/08/17 14:14:28;;;;;;;;;;;;;;;;;;5029739;28;19932;-68
2023/08/17 14:16:55;;;;;;;;;;;;;;;;;;5031271;28;19929;-68
2023/08/17 14:19:22;;;;;;;;;;;;;;;;;;5029773;28;20347;-67
2023/08/17 14:21:49;;;;;;;;;;;;;;;;;;5029074;28;19929;-67
2023/08/17 14:24:16;;;;;;;;;;;;;;;;;;5031652;28;19925;-67
2023/08/17 14:26:43;;;;;;;;;;;;;;;;;;5032368;28;19933;-68
2023/08/17 14:29:10;;;;;;;;;;;;;;;;;;5031559;28;20027;-67
2023/08/17 14:31:37;;;;;;;;;;;;;;;;;;5030933;28;19925;-67
2023/08/17 14:34:04;;;;;;;;;;;;;;;;;;5033378;28;19925;-68
2023/08/17 14:36:31;;;;;;;;;;;;;;;;;;5032597;28;19972;-68
2023/08/17 14:38:58;;;;;;;;;;;;;;;;;;5031687;28;19972;-68
2023/08/17 14:41:31;;;;;;;;;;;;;;;;;;5021936;28;19926;-68
2023/08/17 14:43:58;;;;;;;;;;;;;;;;;;5019449;28;20596;-68
2023/08/17 14:46:25;;;;;;;;;;;;;;;;;;5023802;28;19933;-68
2023/08/17 14:48:52;;;;;;;;;;;;;;;;;;5026812;28;20355;-66
2023/08/17 14:51:19;;;;;;;;;;;;;;;;;;5024391;28;19997;-67
2023/08/17 14:53:46;;;;;;;;;;;;;;;;;;5024857;28;20328;-66
2023/08/17 14:56:13;;;;;;;;;;;;;;;;;;5025643;28;19925;-66
2023/08/17 14:58:40;;;;;;;;;;;;;;;;;;5030071;28;19925;-65
2023/08/17 15:01:07;;;;;;;;;;;;;;;;;;5029611;28;19925;-65
2023/08/17 15:03:34;;;;;;;;;;;;;;;;;;5030675;28;19925;-66
2023/08/17 15:06:01;;;;;;;;;;;;;;;;;;5028572;28;19925;-66
2023/08/17 15:08:28;;;;;;;;;;;;;;;;;;5027629;28;20375;-65
2023/08/17 15:11:01;;;;;;;;;;;;;;;;;;5030311;28;19933;-66
2023/08/17 15:13:28;;;;;;;;;;;;;;;;;;5029945;28;19925;-66
2023/08/17 15:15:55;;;;;;;;;;;;;;;;;;5029412;28;19968;-66
2023/08/17 15:18:22;;;;;;;;;;;;;;;;;;5031523;28;20412;-66
2023/08/17 15:20:49;;;;;;;;;;;;;;;;;;5030121;28;20020;-66
2023/08/17 15:23:16;;;;;;;;;;;;;;;;;;5029774;28;19925;-67
2023/08/17 15:25:43;;;;;;;;;;;;;;;;;;5030309;28;19925;-66
2023/08/17 15:28:10;;;;;;;;;;;;;;;;;;5032329;28;20412;-66
2023/08/17 15:30:37;;;;;;;;;;;;;;;;;;5030051;28;19964;-66
2023/08/17 15:33:04;;;;;;;;;;;;;;;;;;5032347;28;19963;-67
2023/08/17 15:35:31;;;;;;;;;;;;;;;;;;5031222;28;19951;-66
2023/08/17 15:37:58;;;;;;;;;;;;;;;;;;5029518;28;19972;-67
2023/08/17 15:40:25;;;;;;;;;;;;;;;;;;5025863;28;19933;-67
2023/08/17 15:42:52;;;;;;;;;;;;;;;;;;5024067;28;19971;-67
2023/08/17 15:45:20;;;;;;;;;;;;;;;;;;5029435;28;19969;-69
2023/08/17 15:47:47;;;;;;;;;;;;;;;;;;5027163;28;19967;-67
2023/08/17 15:50:14;;;;;;;;;;;;;;;;;;5025262;28;19925;-67
2023/08/17 15:52:41;;;;;;;;;;;;;;;;;;5029461;28;19979;-67
2023/08/17 15:55:08;;;;;;;;;;;;;;;;;;5030935;28;19925;-67
2023/08/17 15:57:36;;;;;;;;;;;;;;;;;;5024323;28;19965;-69
2023/08/17 16:00:03;;;;;;;;;;;;;;;;;;5028043;28;20312;-68
2023/08/17 16:02:30;;;;;;;;;;;;;;;;;;5027276;28;19969;-68
2023/08/17 16:04:57;;;;;;;;;;;;;;;;;;5027485;28;20015;-66
2023/08/17 16:07:25;;;;;;;;;;;;;;;;;;5031241;28;20020;-67
2023/08/17 16:09:52;;;;;;;;;;;;;;;;;;5030572;28;19959;-69
2023/08/17 16:12:19;;;;;;;;;;;;;;;;;;5031137;28;19925;-67
2023/08/17 16:14:46;;;;;;;;;;;;;;;;;;5025182;28;20376;-66
2023/08/17 16:17:13;;;;;;;;;;;;;;;;;;5027175;28;19925;-65
2023/08/17 16:19:40;;;;;;;;;;;;;;;;;;5029640;28;19933;-67
2023/08/17 16:22:07;;;;;;;;;;;;;;;;;;5027083;28;20403;-67
2023/08/17 16:24:38;;;;;;;;;;;;;;;;;;5029554;28;19948;-70
2023/08/17 16:27:06;;;;;;;;;;;;;;;;;;5024866;28;19935;-67
2023/08/17 16:29:33;;;;;;;;;;;;;;;;;;5043753;28;19924;-67
2023/08/17 16:32:00;;;;;;;;;;;;;;;;;;5030397;28;19972;-67
2023/08/17 16:34:27;;;;;;;;;;;;;;;;;;5028906;28;19999;-68
2023/08/17 16:36:54;;;;;;;;;;;;;;;;;;5023382;28;19956;-67
2023/08/17 16:39:21;;;;;;;;;;;;;;;;;;5029709;28;19951;-67
2023/08/17 16:41:49;;;;;;;;;;;;;;;;;;5031936;28;19925;-67
2023/08/17 16:44:16;;;;;;;;;;;;;;;;;;5029576;28;19929;-69